createdAt,value
2022-12-06T00:01:09.109Z,4.30
2022-12-06T00:04:13.885Z,4.03
2022-12-06T00:07:16.674Z,3.83
2022-12-06T00:10:20.865Z,4.20
2022-12-06T00:13:23.701Z,4.30
2022-12-06T00:16:27.648Z,4.10
2022-12-06T00:19:32.598Z,4.10
2022-12-06T00:22:35.429Z,4.03
2022-12-06T00:25:42.067Z,4.10
2022-12-06T00:28:45.584Z,4.50
2022-12-06T00:31:51.338Z,5.00
2022-12-06T00:34:56.136Z,4.63
2022-12-06T00:37:58.933Z,4.60
2022-12-06T00:41:04.908Z,4.33
2022-12-06T00:44:10.828Z,4.30
2022-12-06T00:47:13.688Z,4.40
2022-12-06T00:50:16.668Z,4.27
2022-12-06T00:53:28.717Z,4.00
2022-12-06T00:56:33.636Z,4.13
2022-12-06T00:59:38.542Z,4.00
2022-12-06T01:02:42.203Z,4.03
2022-12-06T01:05:46.985Z,4.00
2022-12-06T01:08:51.177Z,4.10
2022-12-06T01:11:58.231Z,3.80
2022-12-06T01:15:00.991Z,3.90
2022-12-06T01:18:06.071Z,4.07
2022-12-06T01:21:09.915Z,3.37
2022-12-06T01:24:12.634Z,3.60
2022-12-06T01:27:16.638Z,3.10
2022-12-06T01:30:19.385Z,3.03
2022-12-06T01:33:22.172Z,3.17
2022-12-06T01:36:26.465Z,3.10
2022-12-06T01:39:29.238Z,3.40
2022-12-06T01:42:33.355Z,2.83
2022-12-06T01:45:36.201Z,2.97
2022-12-06T01:48:40.188Z,2.90
2022-12-06T01:51:48.211Z,3.13
2022-12-06T01:54:58.371Z,2.87
2022-12-06T01:58:08.419Z,2.97
2022-12-06T02:01:11.845Z,3.37
2022-12-06T02:04:16.011Z,3.37
2022-12-06T02:07:18.829Z,3.27
2022-12-06T02:10:21.786Z,3.17
2022-12-06T02:13:26.918Z,3.33
2022-12-06T02:16:53.443Z,3.70
2022-12-06T02:20:14.669Z,3.27
2022-12-06T02:24:06.633Z,3.20
2022-12-06T02:27:35.182Z,3.10
2022-12-06T02:30:45.105Z,3.10
2022-12-06T02:33:51.716Z,3.17
2022-12-06T02:37:01.025Z,3.10
2022-12-06T02:40:07.972Z,3.10
2022-12-06T02:43:14.752Z,3.17
2022-12-06T02:46:24.463Z,3.07
2022-12-06T02:49:33.281Z,3.00
2022-12-06T02:52:39.985Z,2.90
2022-12-06T02:55:43.913Z,2.67
2022-12-06T02:58:48.061Z,2.47
2022-12-06T03:01:56.917Z,2.80
2022-12-06T03:05:11.152Z,2.60
2022-12-06T03:08:24.298Z,3.03
2022-12-06T03:11:30.668Z,2.80
2022-12-06T03:14:39.663Z,2.80
2022-12-06T03:17:48.981Z,2.87
2022-12-06T03:20:55.925Z,3.00
2022-12-06T03:23:59.689Z,2.87
2022-12-06T03:27:07.531Z,2.83
2022-12-06T03:30:13.442Z,3.00
2022-12-06T03:33:20.370Z,3.20
2022-12-06T03:36:25.790Z,2.93
2022-12-06T03:39:36.344Z,2.87
2022-12-06T03:42:39.723Z,3.03
2022-12-06T03:45:47.990Z,2.93
2022-12-06T03:48:57.023Z,2.83
2022-12-06T03:52:03.373Z,3.27
2022-12-06T03:55:09.429Z,3.67
2022-12-06T03:58:13.018Z,3.43
2022-12-06T04:01:15.827Z,3.20
2022-12-06T04:04:20.338Z,3.10
2022-12-06T04:07:23.824Z,3.13
2022-12-06T04:10:29.676Z,3.13
2022-12-06T04:13:33.199Z,3.03
2022-12-06T04:16:56.450Z,3.43
2022-12-06T04:20:00.936Z,3.33
2022-12-06T04:23:05.660Z,3.70
2022-12-06T04:26:10.425Z,3.43
2022-12-06T04:29:30.642Z,3.10
2022-12-06T04:32:50.757Z,3.20
2022-12-06T04:36:14.748Z,3.40
2022-12-06T04:39:20.597Z,10.27
2022-12-06T04:42:47.387Z,16.83
2022-12-06T04:45:52.125Z,14.83
2022-12-06T04:48:55.066Z,18.60
2022-12-06T04:51:59.133Z,14.27
2022-12-06T04:55:02.081Z,13.37
2022-12-06T04:58:05.329Z,8.17
2022-12-06T05:01:08.160Z,4.90
2022-12-06T05:04:11.117Z,4.00
2022-12-06T05:07:15.385Z,3.60
2022-12-06T05:10:18.275Z,3.20
2022-12-06T05:13:21.566Z,3.00
2022-12-06T05:16:24.397Z,2.90
2022-12-06T05:19:27.956Z,3.03
2022-12-06T05:22:34.759Z,2.40
2022-12-06T05:25:37.544Z,2.60
2022-12-06T05:28:40.331Z,2.50
2022-12-06T05:31:51.055Z,2.30
2022-12-06T05:34:53.768Z,2.10
2022-12-06T05:37:58.011Z,2.70
2022-12-06T05:41:00.764Z,1.77
2022-12-06T05:44:03.588Z,2.17
2022-12-06T05:47:06.464Z,2.27
2022-12-06T05:50:09.985Z,2.50
2022-12-06T05:53:17.435Z,2.80
2022-12-06T05:56:22.664Z,2.53
2022-12-06T05:59:25.459Z,1.80
2022-12-06T06:02:28.316Z,2.10
2022-12-06T06:05:31.817Z,2.10
2022-12-06T06:08:35.928Z,2.40
2022-12-06T06:11:38.668Z,2.33
2022-12-06T06:14:41.417Z,3.90
2022-12-06T06:17:51.763Z,2.90
2022-12-06T06:20:55.965Z,3.00
2022-12-06T06:24:00.382Z,2.73
2022-12-06T06:27:04.136Z,2.37
2022-12-06T06:30:09.255Z,2.37
2022-12-06T06:33:12.030Z,2.23
2022-12-06T06:36:15.444Z,2.27
2022-12-06T06:39:20.293Z,2.43
2022-12-06T06:42:29.273Z,2.63
2022-12-06T06:45:32.047Z,2.30
2022-12-06T06:48:36.615Z,5.13
2022-12-06T06:51:39.325Z,2.50
2022-12-06T06:54:43.438Z,2.10
2022-12-06T06:57:47.630Z,2.20
2022-12-06T07:00:55.073Z,2.40
2022-12-06T07:03:57.996Z,3.80
2022-12-06T07:07:00.730Z,2.70
2022-12-06T07:10:05.511Z,2.20
2022-12-06T07:13:08.229Z,1.90
2022-12-06T07:16:15.831Z,2.80
2022-12-06T07:19:18.834Z,2.20
2022-12-06T07:22:21.628Z,2.03
2022-12-06T07:25:26.159Z,1.60
2022-12-06T07:28:28.906Z,2.10
2022-12-06T07:31:32.321Z,2.17
2022-12-06T07:34:38.881Z,1.70
2022-12-06T07:37:45.220Z,2.47
2022-12-06T07:41:04.566Z,1.70
2022-12-06T07:44:27.249Z,7.47
2022-12-06T07:47:33.744Z,2.23
2022-12-06T07:50:45.611Z,2.00
2022-12-06T07:53:48.435Z,2.27
2022-12-06T07:56:59.973Z,2.33
2022-12-06T08:00:05.230Z,1.63
2022-12-06T08:03:08.899Z,2.07
2022-12-06T08:06:14.504Z,2.40
2022-12-06T08:09:17.267Z,2.40
2022-12-06T08:12:22.848Z,2.80
2022-12-06T08:15:27.912Z,2.13
2022-12-06T08:18:31.303Z,2.80
2022-12-06T08:21:40.240Z,2.43
2022-12-06T08:24:42.993Z,3.13
2022-12-06T08:27:47.165Z,1.83
2022-12-06T08:30:50.169Z,2.47
2022-12-06T08:33:53.449Z,2.27
2022-12-06T08:37:00.326Z,2.10
2022-12-06T08:40:07.399Z,2.20
2022-12-06T08:43:11.738Z,2.57
2022-12-06T08:46:14.561Z,2.30
2022-12-06T08:49:18.453Z,2.50
2022-12-06T08:52:21.480Z,2.33
2022-12-06T08:55:24.376Z,3.03
2022-12-06T08:58:28.479Z,2.20
2022-12-06T09:01:37.696Z,2.20
2022-12-06T09:04:41.050Z,2.57
2022-12-06T09:07:44.122Z,5.20
2022-12-06T09:10:46.986Z,2.90
2022-12-06T09:13:51.191Z,4.17
2022-12-06T09:16:54.111Z,3.60
2022-12-06T09:20:02.129Z,3.10
2022-12-06T09:23:08.281Z,2.40
2022-12-06T09:26:11.187Z,2.03
2022-12-06T09:29:16.210Z,5.07
2022-12-06T09:32:18.957Z,2.40
2022-12-06T09:35:25.256Z,2.30
2022-12-06T09:38:30.333Z,2.00
2022-12-06T09:42:00.114Z,1.77
2022-12-06T09:45:39.720Z,2.00
2022-12-06T09:49:03.313Z,2.33
2022-12-06T09:52:34.964Z,1.90
2022-12-06T09:55:55.616Z,2.40
2022-12-06T09:59:15.844Z,2.87
2022-12-06T10:02:38.140Z,2.37
2022-12-06T10:05:58.124Z,2.10
2022-12-06T10:09:26.556Z,2.23
2022-12-06T10:12:45.978Z,2.50
2022-12-06T10:15:56.171Z,3.10
2022-12-06T10:19:23.373Z,2.97
2022-12-06T10:22:39.287Z,2.60
2022-12-06T10:25:43.444Z,2.70
2022-12-06T10:28:58.756Z,2.33
2022-12-06T10:32:12.251Z,3.60
2022-12-06T10:35:22.647Z,2.93
2022-12-06T10:38:34.577Z,2.30
2022-12-06T10:41:41.427Z,4.77
2022-12-06T10:44:49.089Z,2.83
2022-12-06T10:47:54.025Z,2.87
2022-12-06T10:51:05.272Z,5.00
2022-12-06T10:54:22.649Z,3.30
2022-12-06T10:57:31.938Z,2.63
2022-12-06T11:00:39.210Z,2.73
2022-12-06T11:03:56.676Z,2.67
2022-12-06T11:07:09.354Z,8.33
2022-12-06T11:10:18.994Z,2.70
2022-12-06T11:13:27.331Z,2.90
2022-12-06T11:16:37.467Z,2.43
2022-12-06T11:19:45.593Z,3.23
2022-12-06T11:22:55.939Z,3.50
2022-12-06T11:26:18.112Z,3.00
2022-12-06T11:29:24.804Z,3.10
2022-12-06T11:32:27.624Z,3.13
2022-12-06T11:35:30.447Z,3.10
2022-12-06T11:38:35.664Z,3.33
2022-12-06T11:41:38.725Z,3.23
2022-12-06T11:44:49.748Z,3.63
2022-12-06T11:47:54.883Z,3.77
2022-12-06T11:50:57.936Z,3.10
2022-12-06T11:54:24.195Z,3.83
2022-12-06T11:57:29.243Z,4.73
2022-12-06T12:00:32.013Z,3.83
2022-12-06T12:03:36.685Z,11.17
2022-12-06T12:06:42.674Z,3.50
2022-12-06T12:09:57.526Z,4.27
2022-12-06T12:13:34.991Z,3.30
2022-12-06T12:16:44.105Z,7.63
2022-12-06T12:19:51.807Z,3.40
2022-12-06T12:23:00.488Z,3.70
2022-12-06T12:26:13.207Z,3.80
2022-12-06T12:29:19.038Z,4.00
2022-12-06T12:32:22.013Z,3.97
2022-12-06T12:35:34.392Z,3.80
2022-12-06T12:38:41.852Z,3.20
2022-12-06T12:41:46.381Z,3.53
2022-12-06T12:44:49.340Z,3.13
2022-12-06T12:48:00.108Z,3.30
2022-12-06T12:51:06.655Z,3.53
2022-12-06T12:54:22.047Z,3.30
2022-12-06T12:57:26.193Z,3.53
2022-12-06T13:00:33.294Z,3.37
2022-12-06T13:03:51.043Z,3.43
2022-12-06T13:06:59.250Z,3.27
2022-12-06T13:10:06.609Z,3.43
2022-12-06T13:13:17.564Z,3.77
2022-12-06T13:16:24.913Z,3.50
2022-12-06T13:19:36.493Z,3.37
2022-12-06T13:22:45.217Z,3.30
2022-12-06T13:25:52.990Z,3.63
2022-12-06T13:29:04.289Z,3.80
2022-12-06T13:32:14.355Z,3.90
2022-12-06T13:35:26.652Z,3.90
2022-12-06T13:38:33.225Z,3.37
2022-12-06T13:42:12.114Z,3.07
2022-12-06T13:45:45.505Z,4.00
2022-12-06T13:48:52.747Z,3.50
2022-12-06T13:51:55.557Z,3.63
2022-12-06T13:54:58.258Z,3.77
2022-12-06T13:58:34.390Z,3.70
2022-12-06T14:01:42.734Z,3.00
2022-12-06T14:04:45.558Z,3.27
2022-12-06T14:07:48.357Z,3.30
2022-12-06T14:10:51.262Z,3.10
2022-12-06T14:14:03.439Z,3.77
2022-12-06T14:17:26.756Z,3.47
2022-12-06T14:20:56.412Z,3.10
2022-12-06T14:23:59.402Z,3.10
2022-12-06T14:27:13.524Z,3.10
2022-12-06T14:30:25.262Z,3.00
2022-12-06T14:33:39.701Z,2.97
2022-12-06T14:36:42.785Z,3.17
2022-12-06T14:39:53.181Z,3.00
2022-12-06T14:43:02.136Z,3.30
2022-12-06T14:46:07.453Z,3.23
2022-12-06T14:49:32.769Z,2.90
2022-12-06T14:52:56.643Z,3.30
2022-12-06T14:56:02.123Z,3.27
2022-12-06T14:59:12.061Z,3.30
2022-12-06T15:02:23.666Z,3.40
2022-12-06T15:05:36.821Z,3.63
2022-12-06T15:08:42.336Z,3.23
2022-12-06T15:12:02.936Z,3.37
2022-12-06T15:15:06.871Z,3.73
2022-12-06T15:18:24.129Z,3.07
2022-12-06T15:21:28.270Z,3.40
2022-12-06T15:24:32.274Z,3.23
2022-12-06T15:27:37.570Z,3.50
2022-12-06T15:30:43.377Z,3.03
2022-12-06T15:33:47.136Z,3.77
2022-12-06T15:37:08.968Z,4.27
2022-12-06T15:40:16.018Z,3.47
2022-12-06T15:43:28.864Z,3.60
2022-12-06T15:46:32.736Z,3.23
2022-12-06T15:49:36.052Z,4.70
2022-12-06T15:52:46.348Z,3.00
2022-12-06T15:55:50.487Z,3.20
2022-12-06T15:58:53.342Z,5.27
2022-12-06T16:01:56.092Z,5.17
2022-12-06T16:04:59.386Z,4.27
2022-12-06T16:08:06.685Z,12.10
2022-12-06T16:11:12.042Z,8.63
2022-12-06T16:14:22.910Z,4.50
2022-12-06T16:17:25.722Z,3.63
2022-12-06T16:20:35.151Z,3.80
2022-12-06T16:24:13.412Z,4.20
2022-12-06T16:27:16.450Z,5.07
2022-12-06T16:30:31.932Z,4.17
2022-12-06T16:33:34.782Z,4.03
2022-12-06T16:36:54.474Z,3.70
2022-12-06T16:39:58.521Z,3.90
2022-12-06T16:43:04.322Z,4.90
2022-12-06T16:46:20.737Z,4.40
2022-12-06T16:52:51.782Z,14.47
2022-12-06T16:55:55.969Z,10.23
2022-12-06T16:58:59.302Z,5.67
2022-12-06T17:02:02.267Z,15.33
2022-12-06T17:05:06.901Z,13.73
2022-12-06T17:08:09.984Z,4.60
2022-12-06T17:11:35.822Z,4.40
2022-12-06T17:14:39.036Z,3.90
2022-12-06T17:17:42.160Z,4.50
2022-12-06T17:20:44.828Z,3.63
2022-12-06T17:23:47.727Z,4.50
2022-12-06T17:26:53.960Z,4.30
2022-12-06T17:29:56.664Z,4.80
2022-12-06T17:32:59.396Z,4.60
2022-12-06T17:36:07.332Z,8.83
2022-12-06T17:39:11.421Z,5.37
2022-12-06T17:42:29.676Z,5.53
2022-12-06T17:45:32.420Z,6.80
2022-12-06T17:48:39.008Z,14.07
2022-12-06T17:51:44.344Z,10.03
2022-12-06T17:54:47.073Z,7.47
2022-12-06T17:57:51.221Z,6.37
2022-12-06T18:00:59.706Z,6.30
2022-12-06T18:04:04.203Z,9.57
2022-12-06T18:07:07.225Z,7.30
2022-12-06T18:10:11.092Z,6.53
2022-12-06T18:13:15.179Z,6.33
2022-12-06T18:16:19.679Z,7.13
2022-12-06T18:19:23.507Z,6.23
2022-12-06T18:22:26.272Z,5.00
2022-12-06T18:25:29.111Z,5.03
2022-12-06T18:28:33.345Z,4.70
2022-12-06T18:31:37.102Z,4.83
2022-12-06T18:34:39.864Z,4.70
2022-12-06T18:37:42.576Z,4.20
2022-12-06T18:40:45.353Z,4.50
2022-12-06T18:43:49.964Z,4.67
2022-12-06T18:46:53.492Z,5.60
2022-12-06T18:49:56.547Z,6.63
2022-12-06T18:53:00.944Z,8.17
2022-12-06T18:56:04.882Z,4.40
2022-12-06T18:59:10.207Z,4.93
2022-12-06T19:02:13.662Z,4.83
2022-12-06T19:05:32.956Z,26.33
2022-12-06T19:08:42.528Z,11.23
2022-12-06T19:11:51.149Z,7.77
2022-12-06T19:14:55.213Z,6.30
2022-12-06T19:17:58.154Z,5.20
2022-12-06T19:21:02.023Z,4.70
2022-12-06T19:24:05.437Z,4.70
2022-12-06T19:27:08.266Z,13.20
2022-12-06T19:30:14.909Z,5.77
2022-12-06T19:33:17.837Z,5.37
2022-12-06T19:36:22.776Z,5.57
2022-12-06T19:39:30.958Z,4.77
2022-12-06T19:42:52.873Z,4.53
2022-12-06T19:45:56.967Z,5.77
2022-12-06T19:49:02.176Z,5.40
2022-12-06T19:52:05.188Z,5.50
2022-12-06T19:55:08.445Z,5.13
2022-12-06T19:58:11.720Z,5.17
2022-12-06T20:01:21.378Z,5.70
2022-12-06T20:04:33.667Z,4.83
2022-12-06T20:07:37.012Z,5.33
2022-12-06T20:10:40.220Z,5.70
2022-12-06T20:13:42.950Z,8.63
2022-12-06T20:16:47.055Z,6.60
2022-12-06T20:19:49.986Z,6.60
2022-12-06T20:22:52.715Z,5.50
2022-12-06T20:25:58.060Z,5.70
2022-12-06T20:29:02.201Z,5.67
2022-12-06T20:32:06.804Z,5.73
2022-12-06T20:35:10.070Z,5.73
2022-12-06T20:38:12.871Z,7.10
2022-12-06T20:41:19.017Z,6.07
2022-12-06T20:44:22.279Z,6.23
2022-12-06T20:47:26.373Z,8.73
2022-12-06T20:50:29.093Z,6.67
2022-12-06T20:53:32.868Z,7.80
2022-12-06T20:56:39.056Z,7.27
2022-12-06T20:59:41.865Z,5.57
2022-12-06T21:02:46.020Z,6.50
2022-12-06T21:05:55.015Z,5.40
2022-12-06T21:08:58.044Z,5.23
2022-12-06T21:12:05.146Z,7.27
2022-12-06T21:15:09.040Z,6.87
2022-12-06T21:18:17.378Z,6.30
2022-12-06T21:21:23.182Z,6.13
2022-12-06T21:24:26.014Z,6.07
2022-12-06T21:27:29.625Z,5.97
2022-12-06T21:30:32.730Z,6.10
2022-12-06T21:33:36.936Z,6.40
2022-12-06T21:36:39.650Z,5.77
2022-12-06T21:39:46.278Z,5.90
2022-12-06T21:42:49.036Z,6.47
2022-12-06T21:45:51.747Z,6.90
2022-12-06T21:49:03.505Z,9.00
2022-12-06T21:52:09.353Z,9.03
2022-12-06T21:55:12.373Z,6.40
2022-12-06T21:58:18.158Z,5.90
2022-12-06T22:01:24.159Z,6.40
2022-12-06T22:04:28.565Z,7.20
2022-12-06T22:07:33.754Z,6.97
2022-12-06T22:10:41.341Z,6.53
2022-12-06T22:13:44.348Z,8.23
2022-12-06T22:16:47.104Z,7.80
2022-12-06T22:19:51.832Z,6.53
2022-12-06T22:22:54.505Z,6.40
2022-12-06T22:25:57.254Z,7.13
2022-12-06T22:29:00.945Z,7.40
2022-12-06T22:32:04.406Z,6.90
2022-12-06T22:35:09.499Z,6.20
2022-12-06T22:38:12.445Z,7.00
2022-12-06T22:41:15.143Z,6.73
2022-12-06T22:44:18.109Z,7.27
2022-12-06T22:47:20.866Z,6.70
2022-12-06T22:50:24.966Z,6.80
2022-12-06T22:53:27.717Z,6.67
2022-12-06T22:56:33.169Z,6.50
2022-12-06T22:59:38.273Z,6.90
2022-12-06T23:02:41.008Z,6.57
2022-12-06T23:05:45.135Z,7.07
2022-12-06T23:08:48.054Z,7.20
2022-12-06T23:11:50.825Z,8.53
2022-12-06T23:14:53.613Z,7.10
2022-12-06T23:17:56.336Z,12.90
2022-12-06T23:21:07.875Z,8.33
2022-12-06T23:24:12.488Z,8.00
2022-12-06T23:27:17.008Z,8.93
2022-12-06T23:30:19.848Z,9.70
2022-12-06T23:33:22.940Z,9.10
2022-12-06T23:36:29.034Z,8.40
2022-12-06T23:39:31.890Z,7.80
2022-12-06T23:42:34.593Z,9.33
2022-12-06T23:45:37.385Z,8.37
2022-12-06T23:48:41.594Z,8.50
2022-12-06T23:51:46.769Z,8.77
2022-12-06T23:54:49.477Z,8.33
2022-12-06T23:57:52.381Z,8.43
